sensor_id;sensor_type;location;lat;lon;timestamp;P1;durP1;ratioP1;P2;durP2;ratioP2
67049;SDS011;53955;52.442;13.284;2024-01-07T00:00:52;7.00;;;3.40;;
67049;SDS011;53955;52.442;13.284;2024-01-07T00:03:18;6.30;;;3.30;;
67049;SDS011;53955;52.442;13.284;2024-01-07T00:05:45;9.77;;;3.10;;
67049;SDS011;53955;52.442;13.284;2024-01-07T00:08:12;4.53;;;2.57;;
67049;SDS011;53955;52.442;13.284;2024-01-07T00:10:38;4.60;;;2.40;;
67049;SDS011;53955;52.442;13.284;2024-01-07T00:13:05;5.90;;;2.83;;
67049;SDS011;53955;52.442;13.284;2024-01-07T00:15:33;4.47;;;2.70;;
67049;SDS011;53955;52.442;13.284;2024-01-07T00:17:59;3.80;;;2.63;;
67049;SDS011;53955;52.442;13.284;2024-01-07T00:20:26;5.07;;;2.57;;
67049;SDS011;53955;52.442;13.284;2024-01-07T00:22:52;6.10;;;2.90;;
67049;SDS011;53955;52.442;13.284;2024-01-07T00:25:19;4.77;;;2.60;;
67049;SDS011;53955;52.442;13.284;2024-01-07T00:27:46;4.80;;;2.70;;
67049;SDS011;53955;52.442;13.284;2024-01-07T00:30:15;4.73;;;3.10;;
67049;SDS011;53955;52.442;13.284;2024-01-07T00:32:43;4.93;;;3.17;;
67049;SDS011;53955;52.442;13.284;2024-01-07T00:35:10;7.03;;;3.23;;
67049;SDS011;53955;52.442;13.284;2024-01-07T00:37:36;4.13;;;2.67;;
67049;SDS011;53955;52.442;13.284;2024-01-07T00:40:03;7.80;;;3.20;;
67049;SDS011;53955;52.442;13.284;2024-01-07T00:42:30;7.00;;;3.33;;
67049;SDS011;53955;52.442;13.284;2024-01-07T00:44:57;8.10;;;3.33;;
67049;SDS011;53955;52.442;13.284;2024-01-07T00:47:23;5.77;;;3.17;;
67049;SDS011;53955;52.442;13.284;2024-01-07T00:49:51;7.00;;;2.90;;
67049;SDS011;53955;52.442;13.284;2024-01-07T00:52:18;8.20;;;3.33;;
67049;SDS011;53955;52.442;13.284;2024-01-07T00:54:46;7.20;;;3.53;;
67049;SDS011;53955;52.442;13.284;2024-01-07T00:57:12;4.83;;;3.00;;
67049;SDS011;53955;52.442;13.284;2024-01-07T00:59:39;6.07;;;3.20;;
67049;SDS011;53955;52.442;13.284;2024-01-07T01:02:05;7.03;;;3.53;;
67049;SDS011;53955;52.442;13.284;2024-01-07T01:04:32;4.87;;;2.80;;
67049;SDS011;53955;52.442;13.284;2024-01-07T01:07:00;8.13;;;2.77;;
67049;SDS011;53955;52.442;13.284;2024-01-07T01:09:27;5.60;;;3.17;;
67049;SDS011;53955;52.442;13.284;2024-01-07T01:11:54;7.27;;;2.50;;
67049;SDS011;53955;52.442;13.284;2024-01-07T01:14:20;3.40;;;2.47;;
67049;SDS011;53955;52.442;13.284;2024-01-07T01:16:47;4.27;;;2.70;;
67049;SDS011;53955;52.442;13.284;2024-01-07T01:19:13;5.43;;;2.40;;
67049;SDS011;53955;52.442;13.284;2024-01-07T01:21:40;4.97;;;2.53;;
67049;SDS011;53955;52.442;13.284;2024-01-07T01:24:08;3.63;;;2.20;;
67049;SDS011;53955;52.442;13.284;2024-01-07T01:26:34;5.17;;;2.90;;
67049;SDS011;53955;52.442;13.284;2024-01-07T01:29:01;4.13;;;2.50;;
67049;SDS011;53955;52.442;13.284;2024-01-07T01:31:27;4.03;;;2.40;;
67049;SDS011;53955;52.442;13.284;2024-01-07T01:33:54;3.00;;;2.20;;
67049;SDS011;53955;52.442;13.284;2024-01-07T01:36:20;3.33;;;2.10;;
67049;SDS011;53955;52.442;13.284;2024-01-07T01:38:47;6.13;;;2.60;;
67049;SDS011;53955;52.442;13.284;2024-01-07T01:41:15;2.80;;;1.80;;
67049;SDS011;53955;52.442;13.284;2024-01-07T01:43:42;2.90;;;2.00;;
67049;SDS011;53955;52.442;13.284;2024-01-07T01:46:09;4.57;;;1.97;;
67049;SDS011;53955;52.442;13.284;2024-01-07T01:48:35;4.97;;;2.23;;
67049;SDS011;53955;52.442;13.284;2024-01-07T01:51:02;2.00;;;1.80;;
67049;SDS011;53955;52.442;13.284;2024-01-07T01:53:29;3.70;;;2.13;;
67049;SDS011;53955;52.442;13.284;2024-01-07T01:55:56;3.23;;;1.73;;
67049;SDS011;53955;52.442;13.284;2024-01-07T01:58:25;4.97;;;2.20;;
67049;SDS011;53955;52.442;13.284;2024-01-07T02:00:52;3.37;;;1.83;;
67049;SDS011;53955;52.442;13.284;2024-01-07T02:03:19;3.73;;;2.50;;
67049;SDS011;53955;52.442;13.284;2024-01-07T02:05:45;4.67;;;2.20;;
67049;SDS011;53955;52.442;13.284;2024-01-07T02:08:13;3.80;;;2.13;;
67049;SDS011;53955;52.442;13.284;2024-01-07T02:10:40;7.13;;;2.20;;
67049;SDS011;53955;52.442;13.284;2024-01-07T02:13:07;4.07;;;2.23;;
67049;SDS011;53955;52.442;13.284;2024-01-07T02:15:35;5.10;;;2.70;;
67049;SDS011;53955;52.442;13.284;2024-01-07T02:18:01;5.17;;;2.30;;
67049;SDS011;53955;52.442;13.284;2024-01-07T02:20:28;4.03;;;2.20;;
67049;SDS011;53955;52.442;13.284;2024-01-07T02:22:54;3.77;;;2.40;;
67049;SDS011;53955;52.442;13.284;2024-01-07T02:25:23;7.13;;;2.10;;
67049;SDS011;53955;52.442;13.284;2024-01-07T02:27:50;4.07;;;2.17;;
67049;SDS011;53955;52.442;13.284;2024-01-07T02:30:17;5.37;;;2.00;;
67049;SDS011;53955;52.442;13.284;2024-01-07T02:32:43;5.57;;;2.40;;
67049;SDS011;53955;52.442;13.284;2024-01-07T02:35:10;3.03;;;2.10;;
67049;SDS011;53955;52.442;13.284;2024-01-07T02:37:36;2.63;;;2.00;;
67049;SDS011;53955;52.442;13.284;2024-01-07T02:40:03;2.70;;;1.83;;
67049;SDS011;53955;52.442;13.284;2024-01-07T02:42:41;2.83;;;1.73;;
67049;SDS011;53955;52.442;13.284;2024-01-07T02:45:08;3.63;;;1.83;;
67049;SDS011;53955;52.442;13.284;2024-01-07T02:47:35;2.97;;;2.20;;
67049;SDS011;53955;52.442;13.284;2024-01-07T02:50:01;2.50;;;1.60;;
67049;SDS011;53955;52.442;13.284;2024-01-07T02:52:28;3.40;;;2.07;;
67049;SDS011;53955;52.442;13.284;2024-01-07T02:54:54;2.57;;;1.90;;
67049;SDS011;53955;52.442;13.284;2024-01-07T02:57:21;3.30;;;2.13;;
67049;SDS011;53955;52.442;13.284;2024-01-07T02:59:49;3.03;;;2.17;;
67049;SDS011;53955;52.442;13.284;2024-01-07T03:02:16;3.87;;;2.40;;
67049;SDS011;53955;52.442;13.284;2024-01-07T03:04:43;3.30;;;2.10;;
67049;SDS011;53955;52.442;13.284;2024-01-07T03:07:09;2.53;;;1.90;;
67049;SDS011;53955;52.442;13.284;2024-01-07T03:09:36;3.87;;;2.10;;
67049;SDS011;53955;52.442;13.284;2024-01-07T03:12:02;3.63;;;2.40;;
67049;SDS011;53955;52.442;13.284;2024-01-07T03:14:29;3.23;;;2.17;;
67049;SDS011;53955;52.442;13.284;2024-01-07T03:16:57;3.80;;;2.23;;
67049;SDS011;53955;52.442;13.284;2024-01-07T03:19:24;3.47;;;2.03;;
67049;SDS011;53955;52.442;13.284;2024-01-07T03:21:50;2.40;;;1.80;;
67049;SDS011;53955;52.442;13.284;2024-01-07T03:24:18;4.03;;;2.00;;
67049;SDS011;53955;52.442;13.284;2024-01-07T03:26:44;3.87;;;2.30;;
67049;SDS011;53955;52.442;13.284;2024-01-07T03:29:11;3.37;;;1.90;;
67049;SDS011;53955;52.442;13.284;2024-01-07T03:31:37;2.73;;;1.90;;
67049;SDS011;53955;52.442;13.284;2024-01-07T03:34:05;3.17;;;2.10;;
67049;SDS011;53955;52.442;13.284;2024-01-07T03:36:32;3.40;;;2.03;;
67049;SDS011;53955;52.442;13.284;2024-01-07T03:38:58;2.97;;;1.77;;
67049;SDS011;53955;52.442;13.284;2024-01-07T03:41:25;2.73;;;1.80;;
67049;SDS011;53955;52.442;13.284;2024-01-07T03:43:51;2.63;;;1.80;;
67049;SDS011;53955;52.442;13.284;2024-01-07T03:46:18;2.60;;;2.33;;
67049;SDS011;53955;52.442;13.284;2024-01-07T03:48:45;3.97;;;2.23;;
67049;SDS011;53955;52.442;13.284;2024-01-07T03:51:13;3.30;;;2.00;;
67049;SDS011;53955;52.442;13.284;2024-01-07T03:53:39;2.90;;;2.13;;
67049;SDS011;53955;52.442;13.284;2024-01-07T03:56:06;3.07;;;2.27;;
67049;SDS011;53955;52.442;13.284;2024-01-07T03:58:32;3.77;;;1.77;;
67049;SDS011;53955;52.442;13.284;2024-01-07T04:00:59;7.20;;;2.70;;
67049;SDS011;53955;52.442;13.284;2024-01-07T04:03:26;5.27;;;2.50;;
67049;SDS011;53955;52.442;13.284;2024-01-07T04:05:52;4.93;;;2.10;;
67049;SDS011;53955;52.442;13.284;2024-01-07T04:08:20;5.10;;;2.73;;
67049;SDS011;53955;52.442;13.284;2024-01-07T04:10:47;2.93;;;2.03;;
67049;SDS011;53955;52.442;13.284;2024-01-07T04:13:14;3.97;;;2.30;;
67049;SDS011;53955;52.442;13.284;2024-01-07T04:15:41;3.13;;;2.40;;
67049;SDS011;53955;52.442;13.284;2024-01-07T04:18:07;2.80;;;2.30;;
67049;SDS011;53955;52.442;13.284;2024-01-07T04:20:34;4.40;;;2.50;;
67049;SDS011;53955;52.442;13.284;2024-01-07T04:23:01;4.30;;;2.23;;
67049;SDS011;53955;52.442;13.284;2024-01-07T04:25:29;3.43;;;2.30;;
67049;SDS011;53955;52.442;13.284;2024-01-07T04:27:55;2.23;;;1.93;;
67049;SDS011;53955;52.442;13.284;2024-01-07T04:30:22;3.63;;;2.40;;
67049;SDS011;53955;52.442;13.284;2024-01-07T04:32:49;3.33;;;2.00;;
67049;SDS011;53955;52.442;13.284;2024-01-07T04:35:15;5.73;;;2.17;;
67049;SDS011;53955;52.442;13.284;2024-01-07T04:37:42;3.80;;;2.20;;
67049;SDS011;53955;52.442;13.284;2024-01-07T04:40:09;3.33;;;1.70;;
67049;SDS011;53955;52.442;13.284;2024-01-07T04:42:37;2.70;;;1.97;;
67049;SDS011;53955;52.442;13.284;2024-01-07T04:45:04;3.03;;;2.00;;
67049;SDS011;53955;52.442;13.284;2024-01-07T04:47:31;2.43;;;1.70;;
67049;SDS011;53955;52.442;13.284;2024-01-07T04:49:59;2.20;;;1.80;;
67049;SDS011;53955;52.442;13.284;2024-01-07T04:52:26;2.77;;;1.67;;
67049;SDS011;53955;52.442;13.284;2024-01-07T04:54:53;3.00;;;1.73;;
67049;SDS011;53955;52.442;13.284;2024-01-07T04:57:19;3.63;;;2.10;;
67049;SDS011;53955;52.442;13.284;2024-01-07T04:59:48;3.47;;;2.20;;
67049;SDS011;53955;52.442;13.284;2024-01-07T05:02:16;2.77;;;2.00;;
67049;SDS011;53955;52.442;13.284;2024-01-07T05:04:42;4.00;;;2.33;;
67049;SDS011;53955;52.442;13.284;2024-01-07T05:07:09;3.33;;;1.87;;
67049;SDS011;53955;52.442;13.284;2024-01-07T05:09:35;3.07;;;2.03;;
67049;SDS011;53955;52.442;13.284;2024-01-07T05:12:02;3.93;;;2.13;;
67049;SDS011;53955;52.442;13.284;2024-01-07T05:14:29;3.33;;;1.90;;
67049;SDS011;53955;52.442;13.284;2024-01-07T05:16:57;1.83;;;1.47;;
67049;SDS011;53955;52.442;13.284;2024-01-07T05:19:23;2.60;;;1.87;;
67049;SDS011;53955;52.442;13.284;2024-01-07T05:21:50;4.03;;;2.63;;
67049;SDS011;53955;52.442;13.284;2024-01-07T05:24:16;3.17;;;1.77;;
67049;SDS011;53955;52.442;13.284;2024-01-07T05:26:43;5.20;;;2.30;;
67049;SDS011;53955;52.442;13.284;2024-01-07T05:29:10;2.93;;;1.97;;
67049;SDS011;53955;52.442;13.284;2024-01-07T05:31:37;3.53;;;2.03;;
67049;SDS011;53955;52.442;13.284;2024-01-07T05:34:07;2.90;;;1.80;;
67049;SDS011;53955;52.442;13.284;2024-01-07T05:36:33;3.30;;;2.17;;
67049;SDS011;53955;52.442;13.284;2024-01-07T05:39:00;3.87;;;2.17;;
67049;SDS011;53955;52.442;13.284;2024-01-07T05:41:27;3.40;;;2.00;;
67049;SDS011;53955;52.442;13.284;2024-01-07T05:43:54;3.80;;;1.80;;
67049;SDS011;53955;52.442;13.284;2024-01-07T05:46:20;5.47;;;2.27;;
67049;SDS011;53955;52.442;13.284;2024-01-07T05:48:48;3.37;;;1.80;;
67049;SDS011;53955;52.442;13.284;2024-01-07T05:51:16;3.40;;;2.33;;
67049;SDS011;53955;52.442;13.284;2024-01-07T05:53:43;3.07;;;1.90;;
67049;SDS011;53955;52.442;13.284;2024-01-07T05:56:10;3.50;;;1.93;;
67049;SDS011;53955;52.442;13.284;2024-01-07T05:58:37;2.87;;;1.93;;
67049;SDS011;53955;52.442;13.284;2024-01-07T06:01:03;3.20;;;2.10;;
67049;SDS011;53955;52.442;13.284;2024-01-07T06:03:30;3.33;;;2.50;;
67049;SDS011;53955;52.442;13.284;2024-01-07T06:05:57;2.80;;;1.67;;
67049;SDS011;53955;52.442;13.284;2024-01-07T06:08:25;3.13;;;2.27;;
67049;SDS011;53955;52.442;13.284;2024-01-07T06:10:51;4.00;;;2.17;;
67049;SDS011;53955;52.442;13.284;2024-01-07T06:13:18;2.87;;;2.00;;
67049;SDS011;53955;52.442;13.284;2024-01-07T06:15:44;2.97;;;2.20;;
67049;SDS011;53955;52.442;13.284;2024-01-07T06:18:11;5.73;;;2.20;;
67049;SDS011;53955;52.442;13.284;2024-01-07T06:20:37;3.37;;;2.60;;
67049;SDS011;53955;52.442;13.284;2024-01-07T06:23:04;3.63;;;2.47;;
67049;SDS011;53955;52.442;13.284;2024-01-07T06:25:32;3.57;;;2.03;;
67049;SDS011;53955;52.442;13.284;2024-01-07T06:27:59;4.47;;;1.83;;
67049;SDS011;53955;52.442;13.284;2024-01-07T06:30:25;3.00;;;2.13;;
67049;SDS011;53955;52.442;13.284;2024-01-07T06:32:52;4.37;;;2.50;;
67049;SDS011;53955;52.442;13.284;2024-01-07T06:35:18;4.13;;;2.30;;
67049;SDS011;53955;52.442;13.284;2024-01-07T06:37:45;5.17;;;2.67;;
67049;SDS011;53955;52.442;13.284;2024-01-07T06:40:12;3.63;;;2.33;;
67049;SDS011;53955;52.442;13.284;2024-01-07T06:42:40;5.00;;;2.60;;
67049;SDS011;53955;52.442;13.284;2024-01-07T06:45:09;4.97;;;2.67;;
67049;SDS011;53955;52.442;13.284;2024-01-07T06:47:35;3.67;;;1.87;;
67049;SDS011;53955;52.442;13.284;2024-01-07T06:50:02;4.37;;;2.50;;
67049;SDS011;53955;52.442;13.284;2024-01-07T06:52:29;6.97;;;2.47;;
67049;SDS011;53955;52.442;13.284;2024-01-07T06:54:56;2.47;;;2.00;;
67049;SDS011;53955;52.442;13.284;2024-01-07T06:57:22;3.00;;;2.20;;
67049;SDS011;53955;52.442;13.284;2024-01-07T06:59:50;2.87;;;2.17;;
67049;SDS011;53955;52.442;13.284;2024-01-07T07:02:17;3.23;;;2.23;;
67049;SDS011;53955;52.442;13.284;2024-01-07T07:04:44;3.63;;;2.57;;
67049;SDS011;53955;52.442;13.284;2024-01-07T07:07:10;5.10;;;2.10;;
67049;SDS011;53955;52.442;13.284;2024-01-07T07:09:37;3.63;;;2.30;;
67049;SDS011;53955;52.442;13.284;2024-01-07T07:12:03;3.13;;;2.03;;
67049;SDS011;53955;52.442;13.284;2024-01-07T07:14:32;3.05;;;1.95;;
67049;SDS011;53955;52.442;13.284;2024-01-07T07:17:01;4.60;;;2.27;;
67049;SDS011;53955;52.442;13.284;2024-01-07T07:19:28;3.90;;;2.27;;
67049;SDS011;53955;52.442;13.284;2024-01-07T07:21:54;3.60;;;2.40;;
67049;SDS011;53955;52.442;13.284;2024-01-07T07:24:21;3.00;;;2.37;;
67049;SDS011;53955;52.442;13.284;2024-01-07T07:26:48;5.63;;;2.90;;
67049;SDS011;53955;52.442;13.284;2024-01-07T07:29:14;3.73;;;2.63;;
67049;SDS011;53955;52.442;13.284;2024-01-07T07:31:41;3.30;;;2.20;;
67049;SDS011;53955;52.442;13.284;2024-01-07T07:34:09;5.10;;;2.33;;
67049;SDS011;53955;52.442;13.284;2024-01-07T07:36:37;3.67;;;2.30;;
67049;SDS011;53955;52.442;13.284;2024-01-07T07:39:04;3.73;;;2.33;;
67049;SDS011;53955;52.442;13.284;2024-01-07T07:41:31;4.70;;;2.57;;
67049;SDS011;53955;52.442;13.284;2024-01-07T07:43:57;4.60;;;2.47;;
67049;SDS011;53955;52.442;13.284;2024-01-07T07:46:24;2.53;;;2.07;;
67049;SDS011;53955;52.442;13.284;2024-01-07T07:48:50;4.97;;;2.70;;
67049;SDS011;53955;52.442;13.284;2024-01-07T07:51:18;4.57;;;2.70;;
67049;SDS011;53955;52.442;13.284;2024-01-07T07:53:45;3.63;;;2.40;;
67049;SDS011;53955;52.442;13.284;2024-01-07T07:56:12;3.97;;;2.67;;
67049;SDS011;53955;52.442;13.284;2024-01-07T07:58:38;3.30;;;2.30;;
67049;SDS011;53955;52.442;13.284;2024-01-07T20:32:33;6.27;;;3.90;;
67049;SDS011;53955;52.442;13.284;2024-01-07T20:35:00;6.87;;;3.73;;
67049;SDS011;53955;52.442;13.284;2024-01-07T20:37:27;6.43;;;3.87;;
67049;SDS011;53955;52.442;13.284;2024-01-07T20:39:53;6.23;;;3.50;;
67049;SDS011;53955;52.442;13.284;2024-01-07T20:42:20;6.57;;;4.00;;
67049;SDS011;53955;52.442;13.284;2024-01-07T20:44:47;7.50;;;3.83;;
67049;SDS011;53955;52.442;13.284;2024-01-07T20:47:14;7.90;;;3.73;;
67049;SDS011;53955;52.442;13.284;2024-01-07T20:49:42;5.47;;;3.53;;
67049;SDS011;53955;52.442;13.284;2024-01-07T20:52:08;5.80;;;3.23;;
67049;SDS011;53955;52.442;13.284;2024-01-07T20:54:37;6.90;;;3.73;;
67049;SDS011;53955;52.442;13.284;2024-01-07T20:57:06;7.20;;;3.50;;
67049;SDS011;53955;52.442;13.284;2024-01-07T20:59:32;6.23;;;3.10;;
67049;SDS011;53955;52.442;13.284;2024-01-07T21:01:59;6.10;;;3.47;;
67049;SDS011;53955;52.442;13.284;2024-01-07T21:04:26;6.90;;;3.93;;
67049;SDS011;53955;52.442;13.284;2024-01-07T21:06:54;6.63;;;3.30;;
67049;SDS011;53955;52.442;13.284;2024-01-07T21:09:21;6.63;;;4.50;;
67049;SDS011;53955;52.442;13.284;2024-01-07T21:11:47;7.83;;;3.80;;
67049;SDS011;53955;52.442;13.284;2024-01-07T21:14:14;7.13;;;3.20;;
67049;SDS011;53955;52.442;13.284;2024-01-07T21:16:41;6.07;;;3.73;;
67049;SDS011;53955;52.442;13.284;2024-01-07T21:19:07;7.07;;;3.67;;
67049;SDS011;53955;52.442;13.284;2024-01-07T21:21:34;7.53;;;3.70;;
67049;SDS011;53955;52.442;13.284;2024-01-07T21:24:03;8.13;;;4.13;;
67049;SDS011;53955;52.442;13.284;2024-01-07T21:26:30;6.40;;;3.70;;
67049;SDS011;53955;52.442;13.284;2024-01-07T21:28:57;5.30;;;3.70;;
67049;SDS011;53955;52.442;13.284;2024-01-07T21:31:24;6.33;;;3.30;;
67049;SDS011;53955;52.442;13.284;2024-01-07T21:33:52;6.40;;;3.73;;
67049;SDS011;53955;52.442;13.284;2024-01-07T21:36:18;7.57;;;4.00;;
67049;SDS011;53955;52.442;13.284;2024-01-07T21:38:45;7.80;;;4.10;;
67049;SDS011;53955;52.442;13.284;2024-01-07T21:41:13;7.90;;;3.97;;
67049;SDS011;53955;52.442;13.284;2024-01-07T21:43:39;6.53;;;4.07;;
67049;SDS011;53955;52.442;13.284;2024-01-07T21:46:06;6.73;;;3.90;;
67049;SDS011;53955;52.442;13.284;2024-01-07T21:48:37;6.03;;;3.70;;
67049;SDS011;53955;52.442;13.284;2024-01-07T21:51:05;8.07;;;4.53;;
67049;SDS011;53955;52.442;13.284;2024-01-07T21:53:33;9.20;;;4.70;;
67049;SDS011;53955;52.442;13.284;2024-01-07T21:56:00;5.83;;;3.70;;
67049;SDS011;53955;52.442;13.284;2024-01-07T21:58:29;8.07;;;4.67;;
67049;SDS011;53955;52.442;13.284;2024-01-07T22:00:56;7.10;;;4.00;;
67049;SDS011;53955;52.442;13.284;2024-01-07T22:03:23;9.43;;;4.47;;
67049;SDS011;53955;52.442;13.284;2024-01-07T22:05:49;7.77;;;4.27;;
67049;SDS011;53955;52.442;13.284;2024-01-07T22:08:16;8.40;;;4.60;;
67049;SDS011;53955;52.442;13.284;2024-01-07T22:10:43;10.70;;;5.17;;
67049;SDS011;53955;52.442;13.284;2024-01-07T22:13:09;8.63;;;4.47;;
67049;SDS011;53955;52.442;13.284;2024-01-07T22:15:37;5.80;;;3.57;;
67049;SDS011;53955;52.442;13.284;2024-01-07T22:18:04;9.53;;;4.70;;
67049;SDS011;53955;52.442;13.284;2024-01-07T22:20:32;10.37;;;4.53;;
67049;SDS011;53955;52.442;13.284;2024-01-07T22:22:58;11.47;;;4.70;;
67049;SDS011;53955;52.442;13.284;2024-01-07T22:25:25;10.00;;;4.77;;
67049;SDS011;53955;52.442;13.284;2024-01-07T22:27:52;7.73;;;4.10;;
67049;SDS011;53955;52.442;13.284;2024-01-07T22:30:19;7.73;;;4.27;;
67049;SDS011;53955;52.442;13.284;2024-01-07T22:32:47;9.07;;;4.83;;
67049;SDS011;53955;52.442;13.284;2024-01-07T22:35:14;8.43;;;4.13;;
67049;SDS011;53955;52.442;13.284;2024-01-07T22:37:40;7.87;;;4.53;;
67049;SDS011;53955;52.442;13.284;2024-01-07T22:40:07;10.20;;;5.17;;
67049;SDS011;53955;52.442;13.284;2024-01-07T22:42:34;9.03;;;4.37;;
67049;SDS011;53955;52.442;13.284;2024-01-07T22:45:01;8.37;;;3.87;;
67049;SDS011;53955;52.442;13.284;2024-01-07T22:47:27;8.37;;;4.30;;
67049;SDS011;53955;52.442;13.284;2024-01-07T22:49:55;9.23;;;4.17;;
67049;SDS011;53955;52.442;13.284;2024-01-07T22:52:22;9.33;;;5.10;;
67049;SDS011;53955;52.442;13.284;2024-01-07T22:54:48;11.60;;;4.90;;
67049;SDS011;53955;52.442;13.284;2024-01-07T22:57:15;9.13;;;4.50;;
67049;SDS011;53955;52.442;13.284;2024-01-07T22:59:41;10.30;;;5.17;;
67049;SDS011;53955;52.442;13.284;2024-01-07T23:02:08;7.27;;;3.83;;
67049;SDS011;53955;52.442;13.284;2024-01-07T23:04:34;7.87;;;4.50;;
67049;SDS011;53955;52.442;13.284;2024-01-07T23:07:02;7.97;;;4.40;;
67049;SDS011;53955;52.442;13.284;2024-01-07T23:09:29;8.40;;;5.00;;
67049;SDS011;53955;52.442;13.284;2024-01-07T23:11:55;10.47;;;4.47;;
67049;SDS011;53955;52.442;13.284;2024-01-07T23:14:22;12.33;;;5.60;;
67049;SDS011;53955;52.442;13.284;2024-01-07T23:16:49;8.97;;;4.43;;
67049;SDS011;53955;52.442;13.284;2024-01-07T23:19:15;7.80;;;4.60;;
67049;SDS011;53955;52.442;13.284;2024-01-07T23:21:42;8.03;;;4.33;;
67049;SDS011;53955;52.442;13.284;2024-01-07T23:24:09;10.80;;;4.60;;
67049;SDS011;53955;52.442;13.284;2024-01-07T23:26:36;9.70;;;4.40;;
67049;SDS011;53955;52.442;13.284;2024-01-07T23:29:02;7.47;;;3.60;;
67049;SDS011;53955;52.442;13.284;2024-01-07T23:31:29;8.43;;;4.67;;
67049;SDS011;53955;52.442;13.284;2024-01-07T23:33:56;9.37;;;4.43;;
67049;SDS011;53955;52.442;13.284;2024-01-07T23:36:22;9.60;;;4.60;;
67049;SDS011;53955;52.442;13.284;2024-01-07T23:38:49;9.37;;;4.73;;
67049;SDS011;53955;52.442;13.284;2024-01-07T23:41:16;7.70;;;4.47;;
67049;SDS011;53955;52.442;13.284;2024-01-07T23:43:43;9.30;;;4.70;;
67049;SDS011;53955;52.442;13.284;2024-01-07T23:46:10;10.70;;;5.00;;
67049;SDS011;53955;52.442;13.284;2024-01-07T23:48:37;10.40;;;4.47;;
67049;SDS011;53955;52.442;13.284;2024-01-07T23:51:03;8.77;;;4.70;;
67049;SDS011;53955;52.442;13.284;2024-01-07T23:53:30;9.47;;;4.67;;
67049;SDS011;53955;52.442;13.284;2024-01-07T23:55:57;13.00;;;5.37;;
67049;SDS011;53955;52.442;13.284;2024-01-07T23:58:25;8.43;;;4.73;;
